sensor_id;sensor_type;location;lat;lon;timestamp;temperature;humidity
23251;DHT22;11794;49.730;10.088;2024-01-15T00:01:16;-3.40;99.90
23251;DHT22;11794;49.730;10.088;2024-01-15T00:03:42;-3.40;99.90
23251;DHT22;11794;49.730;10.088;2024-01-15T00:06:08;-3.40;99.90
23251;DHT22;11794;49.730;10.088;2024-01-15T00:08:34;-3.40;99.90
23251;DHT22;11794;49.730;10.088;2024-01-15T00:10:59;-3.40;99.90
23251;DHT22;11794;49.730;10.088;2024-01-15T00:13:25;-3.40;99.90
23251;DHT22;11794;49.730;10.088;2024-01-15T00:15:50;-3.50;99.90
23251;DHT22;11794;49.730;10.088;2024-01-15T00:18:16;-3.50;99.90
23251;DHT22;11794;49.730;10.088;2024-01-15T00:20:41;-3.50;99.90
23251;DHT22;11794;49.730;10.088;2024-01-15T00:23:07;-3.50;99.90
23251;DHT22;11794;49.730;10.088;2024-01-15T00:25:33;-3.50;99.90
23251;DHT22;11794;49.730;10.088;2024-01-15T00:27:58;-3.50;99.90
23251;DHT22;11794;49.730;10.088;2024-01-15T00:30:24;-3.40;99.90
23251;DHT22;11794;49.730;10.088;2024-01-15T00:32:49;-3.40;99.90
23251;DHT22;11794;49.730;10.088;2024-01-15T00:35:15;-3.40;99.90
23251;DHT22;11794;49.730;10.088;2024-01-15T00:37:40;-3.40;99.90
23251;DHT22;11794;49.730;10.088;2024-01-15T00:40:06;-3.40;99.90
23251;DHT22;11794;49.730;10.088;2024-01-15T00:42:33;-3.40;99.90
23251;DHT22;11794;49.730;10.088;2024-01-15T00:44:59;-3.40;99.90
23251;DHT22;11794;49.730;10.088;2024-01-15T00:47:25;-3.40;99.90
23251;DHT22;11794;49.730;10.088;2024-01-15T00:49:51;-3.40;99.90
23251;DHT22;11794;49.730;10.088;2024-01-15T00:52:16;-3.30;99.90
23251;DHT22;11794;49.730;10.088;2024-01-15T00:54:42;-3.40;99.90
23251;DHT22;11794;49.730;10.088;2024-01-15T00:57:07;-3.40;99.90
23251;DHT22;11794;49.730;10.088;2024-01-15T00:59:33;-3.30;99.90
23251;DHT22;11794;49.730;10.088;2024-01-15T01:01:58;-3.40;99.90
23251;DHT22;11794;49.730;10.088;2024-01-15T01:04:24;-3.40;99.90
23251;DHT22;11794;49.730;10.088;2024-01-15T01:06:49;-3.40;99.90
23251;DHT22;11794;49.730;10.088;2024-01-15T01:09:15;-3.40;99.90
23251;DHT22;11794;49.730;10.088;2024-01-15T01:11:40;-3.40;99.90
23251;DHT22;11794;49.730;10.088;2024-01-15T01:14:06;-3.40;99.90
23251;DHT22;11794;49.730;10.088;2024-01-15T01:16:31;-3.30;99.90
23251;DHT22;11794;49.730;10.088;2024-01-15T01:19:04;-3.30;99.90
23251;DHT22;11794;49.730;10.088;2024-01-15T01:21:30;-3.30;99.90
23251;DHT22;11794;49.730;10.088;2024-01-15T01:23:55;-3.40;99.90
23251;DHT22;11794;49.730;10.088;2024-01-15T01:26:21;-3.40;99.90
23251;DHT22;11794;49.730;10.088;2024-01-15T01:28:46;-3.40;99.90
23251;DHT22;11794;49.730;10.088;2024-01-15T01:31:12;-3.40;99.90
23251;DHT22;11794;49.730;10.088;2024-01-15T01:33:39;-3.40;99.90
23251;DHT22;11794;49.730;10.088;2024-01-15T01:36:08;-3.40;99.90
23251;DHT22;11794;49.730;10.088;2024-01-15T01:38:35;-3.30;99.90
23251;DHT22;11794;49.730;10.088;2024-01-15T01:41:00;-3.40;99.90
23251;DHT22;11794;49.730;10.088;2024-01-15T01:43:26;-3.30;99.90
23251;DHT22;11794;49.730;10.088;2024-01-15T01:45:52;-3.30;99.90
23251;DHT22;11794;49.730;10.088;2024-01-15T01:48:17;-3.30;99.90
23251;DHT22;11794;49.730;10.088;2024-01-15T01:50:43;-3.30;99.90
23251;DHT22;11794;49.730;10.088;2024-01-15T01:53:09;-3.30;99.90
23251;DHT22;11794;49.730;10.088;2024-01-15T01:55:36;-3.30;99.90
23251;DHT22;11794;49.730;10.088;2024-01-15T01:58:04;-3.30;99.90
23251;DHT22;11794;49.730;10.088;2024-01-15T02:00:30;-3.30;99.90
23251;DHT22;11794;49.730;10.088;2024-01-15T02:02:56;-3.20;99.90
23251;DHT22;11794;49.730;10.088;2024-01-15T02:05:22;-3.20;99.90
23251;DHT22;11794;49.730;10.088;2024-01-15T02:07:48;-3.20;99.90
23251;DHT22;11794;49.730;10.088;2024-01-15T02:10:14;-3.20;99.90
23251;DHT22;11794;49.730;10.088;2024-01-15T02:12:39;-3.10;99.90
23251;DHT22;11794;49.730;10.088;2024-01-15T02:15:05;-3.10;99.90
23251;DHT22;11794;49.730;10.088;2024-01-15T02:17:31;-3.10;99.90
23251;DHT22;11794;49.730;10.088;2024-01-15T02:19:56;-3.10;99.90
23251;DHT22;11794;49.730;10.088;2024-01-15T02:22:22;-3.10;99.90
23251;DHT22;11794;49.730;10.088;2024-01-15T02:24:47;-3.10;99.90
23251;DHT22;11794;49.730;10.088;2024-01-15T02:27:13;-3.10;99.90
23251;DHT22;11794;49.730;10.088;2024-01-15T02:29:39;-3.00;99.90
23251;DHT22;11794;49.730;10.088;2024-01-15T02:32:05;-3.00;99.90
23251;DHT22;11794;49.730;10.088;2024-01-15T02:34:32;-3.00;99.90
23251;DHT22;11794;49.730;10.088;2024-01-15T02:36:58;-3.00;99.90
23251;DHT22;11794;49.730;10.088;2024-01-15T02:39:23;-3.00;99.90
23251;DHT22;11794;49.730;10.088;2024-01-15T02:41:49;-3.00;99.90
23251;DHT22;11794;49.730;10.088;2024-01-15T02:44:14;-2.90;99.90
23251;DHT22;11794;49.730;10.088;2024-01-15T02:46:40;-3.00;99.90
23251;DHT22;11794;49.730;10.088;2024-01-15T02:49:05;-3.00;99.90
23251;DHT22;11794;49.730;10.088;2024-01-15T02:51:31;-3.00;99.90
23251;DHT22;11794;49.730;10.088;2024-01-15T02:53:56;-2.90;99.90
23251;DHT22;11794;49.730;10.088;2024-01-15T02:56:22;-2.90;99.90
23251;DHT22;11794;49.730;10.088;2024-01-15T02:58:47;-2.90;99.90
23251;DHT22;11794;49.730;10.088;2024-01-15T03:01:13;-2.90;99.90
23251;DHT22;11794;49.730;10.088;2024-01-15T03:03:40;-2.90;99.90
23251;DHT22;11794;49.730;10.088;2024-01-15T03:06:05;-2.90;99.90
23251;DHT22;11794;49.730;10.088;2024-01-15T03:08:31;-2.90;99.90
23251;DHT22;11794;49.730;10.088;2024-01-15T03:10:56;-2.80;99.90
23251;DHT22;11794;49.730;10.088;2024-01-15T03:13:22;-2.80;99.90
23251;DHT22;11794;49.730;10.088;2024-01-15T03:15:47;-2.80;99.90
23251;DHT22;11794;49.730;10.088;2024-01-15T03:18:13;-2.80;99.90
23251;DHT22;11794;49.730;10.088;2024-01-15T03:20:39;-2.70;99.90
23251;DHT22;11794;49.730;10.088;2024-01-15T03:23:04;-2.70;99.90
23251;DHT22;11794;49.730;10.088;2024-01-15T03:25:30;-2.70;99.90
23251;DHT22;11794;49.730;10.088;2024-01-15T03:27:55;-2.70;99.90
23251;DHT22;11794;49.730;10.088;2024-01-15T03:30:21;-2.60;99.90
23251;DHT22;11794;49.730;10.088;2024-01-15T03:32:47;-2.60;99.90
23251;DHT22;11794;49.730;10.088;2024-01-15T03:35:12;-2.60;99.90
23251;DHT22;11794;49.730;10.088;2024-01-15T03:37:38;-2.60;99.90
23251;DHT22;11794;49.730;10.088;2024-01-15T03:40:04;-2.60;99.90
23251;DHT22;11794;49.730;10.088;2024-01-15T03:42:30;-2.60;99.90
23251;DHT22;11794;49.730;10.088;2024-01-15T03:44:55;-2.60;99.90
23251;DHT22;11794;49.730;10.088;2024-01-15T03:47:21;-2.50;99.90
23251;DHT22;11794;49.730;10.088;2024-01-15T03:49:46;-2.50;99.90
23251;DHT22;11794;49.730;10.088;2024-01-15T03:52:12;-2.50;99.90
23251;DHT22;11794;49.730;10.088;2024-01-15T03:54:37;-2.50;99.90
23251;DHT22;11794;49.730;10.088;2024-01-15T03:57:03;-2.50;99.90
23251;DHT22;11794;49.730;10.088;2024-01-15T03:59:28;-2.40;99.90
23251;DHT22;11794;49.730;10.088;2024-01-15T04:01:54;-2.50;99.90
23251;DHT22;11794;49.730;10.088;2024-01-15T04:04:20;-2.40;99.90
23251;DHT22;11794;49.730;10.088;2024-01-15T04:06:45;-2.40;99.90
23251;DHT22;11794;49.730;10.088;2024-01-15T04:09:12;-2.50;99.90
23251;DHT22;11794;49.730;10.088;2024-01-15T04:11:39;-2.40;99.90
23251;DHT22;11794;49.730;10.088;2024-01-15T04:14:05;-2.40;99.90
23251;DHT22;11794;49.730;10.088;2024-01-15T04:16:30;-2.40;99.90
23251;DHT22;11794;49.730;10.088;2024-01-15T04:18:56;-2.40;99.90
23251;DHT22;11794;49.730;10.088;2024-01-15T04:21:21;-2.40;99.90
23251;DHT22;11794;49.730;10.088;2024-01-15T04:23:47;-2.40;99.90
23251;DHT22;11794;49.730;10.088;2024-01-15T04:26:12;-2.40;99.90
23251;DHT22;11794;49.730;10.088;2024-01-15T04:28:38;-2.40;99.90
23251;DHT22;11794;49.730;10.088;2024-01-15T04:31:03;-2.40;99.90
23251;DHT22;11794;49.730;10.088;2024-01-15T04:33:29;-2.40;99.90
23251;DHT22;11794;49.730;10.088;2024-01-15T04:35:54;-2.40;99.90
23251;DHT22;11794;49.730;10.088;2024-01-15T04:38:20;-2.40;99.90
23251;DHT22;11794;49.730;10.088;2024-01-15T04:40:45;-2.40;99.90
23251;DHT22;11794;49.730;10.088;2024-01-15T04:43:11;-2.30;99.90
23251;DHT22;11794;49.730;10.088;2024-01-15T04:45:36;-2.30;99.90
23251;DHT22;11794;49.730;10.088;2024-01-15T04:48:02;-2.30;99.90
23251;DHT22;11794;49.730;10.088;2024-01-15T04:50:28;-2.40;99.90
23251;DHT22;11794;49.730;10.088;2024-01-15T04:52:54;-2.40;99.90
23251;DHT22;11794;49.730;10.088;2024-01-15T04:55:19;-2.40;99.90
23251;DHT22;11794;49.730;10.088;2024-01-15T04:57:45;-2.40;99.90
23251;DHT22;11794;49.730;10.088;2024-01-15T05:00:11;-2.40;99.90
23251;DHT22;11794;49.730;10.088;2024-01-15T05:02:37;-2.40;99.90
23251;DHT22;11794;49.730;10.088;2024-01-15T05:05:03;-2.40;99.90
23251;DHT22;11794;49.730;10.088;2024-01-15T05:07:28;-2.50;99.90
23251;DHT22;11794;49.730;10.088;2024-01-15T05:09:54;-2.50;99.90
23251;DHT22;11794;49.730;10.088;2024-01-15T05:12:19;-2.50;99.90
23251;DHT22;11794;49.730;10.088;2024-01-15T05:14:45;-2.50;99.90
23251;DHT22;11794;49.730;10.088;2024-01-15T05:17:10;-2.50;99.90
23251;DHT22;11794;49.730;10.088;2024-01-15T05:19:36;-2.50;99.90
23251;DHT22;11794;49.730;10.088;2024-01-15T05:22:01;-2.50;99.90
23251;DHT22;11794;49.730;10.088;2024-01-15T05:24:27;-2.50;99.90
23251;DHT22;11794;49.730;10.088;2024-01-15T05:26:52;-2.60;99.90
23251;DHT22;11794;49.730;10.088;2024-01-15T05:29:18;-2.60;99.90
23251;DHT22;11794;49.730;10.088;2024-01-15T05:31:43;-2.60;99.90
23251;DHT22;11794;49.730;10.088;2024-01-15T05:34:09;-2.50;99.90
23251;DHT22;11794;49.730;10.088;2024-01-15T05:36:35;-2.50;99.90
23251;DHT22;11794;49.730;10.088;2024-01-15T05:39:00;-2.50;99.90
23251;DHT22;11794;49.730;10.088;2024-01-15T05:41:25;-2.40;99.90
23251;DHT22;11794;49.730;10.088;2024-01-15T05:43:51;-2.40;99.90
23251;DHT22;11794;49.730;10.088;2024-01-15T05:46:17;-2.40;99.90
23251;DHT22;11794;49.730;10.088;2024-01-15T05:48:43;-2.40;99.90
23251;DHT22;11794;49.730;10.088;2024-01-15T05:51:08;-2.40;99.90
23251;DHT22;11794;49.730;10.088;2024-01-15T05:53:34;-2.30;99.90
23251;DHT22;11794;49.730;10.088;2024-01-15T05:55:59;-2.30;99.90
23251;DHT22;11794;49.730;10.088;2024-01-15T05:58:26;-2.30;99.90
23251;DHT22;11794;49.730;10.088;2024-01-15T06:00:52;-2.30;99.90
23251;DHT22;11794;49.730;10.088;2024-01-15T06:03:17;-2.30;99.90
23251;DHT22;11794;49.730;10.088;2024-01-15T06:05:43;-2.30;99.90
23251;DHT22;11794;49.730;10.088;2024-01-15T06:08:09;-2.30;99.90
23251;DHT22;11794;49.730;10.088;2024-01-15T06:10:34;-2.30;99.90
23251;DHT22;11794;49.730;10.088;2024-01-15T06:13:00;-2.20;99.90
23251;DHT22;11794;49.730;10.088;2024-01-15T06:15:25;-2.20;99.90
23251;DHT22;11794;49.730;10.088;2024-01-15T06:17:51;-2.20;99.90
23251;DHT22;11794;49.730;10.088;2024-01-15T06:20:16;-2.20;99.90
23251;DHT22;11794;49.730;10.088;2024-01-15T06:22:42;-2.20;99.90
23251;DHT22;11794;49.730;10.088;2024-01-15T06:25:08;-2.20;99.90
23251;DHT22;11794;49.730;10.088;2024-01-15T06:27:33;-2.30;99.90
23251;DHT22;11794;49.730;10.088;2024-01-15T06:29:59;-2.30;99.90
23251;DHT22;11794;49.730;10.088;2024-01-15T06:32:24;-2.30;99.90
23251;DHT22;11794;49.730;10.088;2024-01-15T06:34:50;-2.20;99.90
23251;DHT22;11794;49.730;10.088;2024-01-15T06:37:15;-2.20;99.90
23251;DHT22;11794;49.730;10.088;2024-01-15T06:39:41;-2.20;99.90
23251;DHT22;11794;49.730;10.088;2024-01-15T06:42:07;-2.20;99.90
23251;DHT22;11794;49.730;10.088;2024-01-15T06:44:32;-2.20;99.90
23251;DHT22;11794;49.730;10.088;2024-01-15T06:46:58;-2.20;99.90
23251;DHT22;11794;49.730;10.088;2024-01-15T06:49:28;-2.20;99.90
23251;DHT22;11794;49.730;10.088;2024-01-15T06:51:53;-2.20;99.90
23251;DHT22;11794;49.730;10.088;2024-01-15T06:54:19;-2.20;99.90
23251;DHT22;11794;49.730;10.088;2024-01-15T06:56:45;-2.20;99.90
23251;DHT22;11794;49.730;10.088;2024-01-15T06:59:10;-2.20;99.90
23251;DHT22;11794;49.730;10.088;2024-01-15T07:01:35;-2.20;99.90
23251;DHT22;11794;49.730;10.088;2024-01-15T07:04:01;-2.20;99.90
23251;DHT22;11794;49.730;10.088;2024-01-15T07:06:26;-2.20;99.90
23251;DHT22;11794;49.730;10.088;2024-01-15T07:08:52;-2.30;99.90
23251;DHT22;11794;49.730;10.088;2024-01-15T07:11:17;-2.30;99.90
23251;DHT22;11794;49.730;10.088;2024-01-15T07:13:43;-2.30;99.90
23251;DHT22;11794;49.730;10.088;2024-01-15T07:16:08;-2.20;99.90
23251;DHT22;11794;49.730;10.088;2024-01-15T07:18:34;-2.20;99.90
23251;DHT22;11794;49.730;10.088;2024-01-15T07:20:59;-2.20;99.90
23251;DHT22;11794;49.730;10.088;2024-01-15T07:23:26;-2.20;99.90
23251;DHT22;11794;49.730;10.088;2024-01-15T07:25:52;-2.20;99.90
23251;DHT22;11794;49.730;10.088;2024-01-15T07:28:19;-2.20;99.90
23251;DHT22;11794;49.730;10.088;2024-01-15T07:30:44;-2.10;99.90
23251;DHT22;11794;49.730;10.088;2024-01-15T07:33:10;-2.10;99.90
23251;DHT22;11794;49.730;10.088;2024-01-15T07:35:36;-2.10;99.90
23251;DHT22;11794;49.730;10.088;2024-01-15T07:38:01;-2.10;99.90
23251;DHT22;11794;49.730;10.088;2024-01-15T07:40:27;-2.10;99.90
23251;DHT22;11794;49.730;10.088;2024-01-15T07:42:53;-2.10;99.90
23251;DHT22;11794;49.730;10.088;2024-01-15T07:45:18;-2.00;99.90
23251;DHT22;11794;49.730;10.088;2024-01-15T07:47:44;-2.00;99.90
23251;DHT22;11794;49.730;10.088;2024-01-15T07:50:10;-2.00;99.90
23251;DHT22;11794;49.730;10.088;2024-01-15T07:52:35;-2.00;99.90
23251;DHT22;11794;49.730;10.088;2024-01-15T07:55:01;-2.00;99.90
23251;DHT22;11794;49.730;10.088;2024-01-15T07:57:28;-2.00;99.90
23251;DHT22;11794;49.730;10.088;2024-01-15T07:59:54;-2.00;99.90
23251;DHT22;11794;49.730;10.088;2024-01-15T08:02:20;-2.00;99.90
23251;DHT22;11794;49.730;10.088;2024-01-15T08:04:45;-2.00;99.90
23251;DHT22;11794;49.730;10.088;2024-01-15T08:07:11;-2.00;99.90
23251;DHT22;11794;49.730;10.088;2024-01-15T08:09:36;-2.00;99.90
23251;DHT22;11794;49.730;10.088;2024-01-15T08:12:02;-1.90;99.90
23251;DHT22;11794;49.730;10.088;2024-01-15T08:14:28;-1.90;99.90
23251;DHT22;11794;49.730;10.088;2024-01-15T08:16:54;-1.90;99.90
23251;DHT22;11794;49.730;10.088;2024-01-15T08:19:19;-1.90;99.90
23251;DHT22;11794;49.730;10.088;2024-01-15T08:21:47;-1.90;99.90
23251;DHT22;11794;49.730;10.088;2024-01-15T08:24:14;-1.80;99.90
23251;DHT22;11794;49.730;10.088;2024-01-15T08:26:40;-1.60;99.90
23251;DHT22;11794;49.730;10.088;2024-01-15T08:29:05;-1.60;99.90
23251;DHT22;11794;49.730;10.088;2024-01-15T08:31:31;-1.60;99.90
23251;DHT22;11794;49.730;10.088;2024-01-15T08:33:56;-1.60;99.90
23251;DHT22;11794;49.730;10.088;2024-01-15T08:36:23;-1.60;99.90
23251;DHT22;11794;49.730;10.088;2024-01-15T08:38:49;-1.60;99.90
23251;DHT22;11794;49.730;10.088;2024-01-15T08:41:15;-1.60;99.90
23251;DHT22;11794;49.730;10.088;2024-01-15T08:43:40;-1.50;99.90
23251;DHT22;11794;49.730;10.088;2024-01-15T08:46:06;-1.50;99.90
23251;DHT22;11794;49.730;10.088;2024-01-15T08:48:32;-1.50;99.90
23251;DHT22;11794;49.730;10.088;2024-01-15T08:50:57;-1.40;99.90
23251;DHT22;11794;49.730;10.088;2024-01-15T08:53:23;-1.40;99.90
23251;DHT22;11794;49.730;10.088;2024-01-15T08:55:49;-1.30;99.90
23251;DHT22;11794;49.730;10.088;2024-01-15T08:58:15;-1.20;99.90
23251;DHT22;11794;49.730;10.088;2024-01-15T09:00:40;-1.20;99.90
23251;DHT22;11794;49.730;10.088;2024-01-15T09:03:06;-1.20;99.90
23251;DHT22;11794;49.730;10.088;2024-01-15T09:05:33;-1.20;99.90
23251;DHT22;11794;49.730;10.088;2024-01-15T09:07:59;-1.20;99.90
23251;DHT22;11794;49.730;10.088;2024-01-15T09:10:24;-1.10;99.90
23251;DHT22;11794;49.730;10.088;2024-01-15T09:12:50;-1.10;99.90
23251;DHT22;11794;49.730;10.088;2024-01-15T09:15:16;-1.10;99.90
23251;DHT22;11794;49.730;10.088;2024-01-15T09:17:42;-1.10;99.90
23251;DHT22;11794;49.730;10.088;2024-01-15T09:20:08;-1.10;99.90
23251;DHT22;11794;49.730;10.088;2024-01-15T09:22:34;-1.10;99.90
23251;DHT22;11794;49.730;10.088;2024-01-15T09:25:00;-1.00;99.90
23251;DHT22;11794;49.730;10.088;2024-01-15T09:27:25;-1.00;99.90
23251;DHT22;11794;49.730;10.088;2024-01-15T09:29:54;-0.90;99.90
23251;DHT22;11794;49.730;10.088;2024-01-15T09:32:20;-0.80;99.90
23251;DHT22;11794;49.730;10.088;2024-01-15T09:34:46;-0.80;99.90
23251;DHT22;11794;49.730;10.088;2024-01-15T09:37:12;-0.80;99.90
23251;DHT22;11794;49.730;10.088;2024-01-15T09:39:39;-0.80;99.90
23251;DHT22;11794;49.730;10.088;2024-01-15T09:42:05;-0.80;99.90
23251;DHT22;11794;49.730;10.088;2024-01-15T09:44:31;-0.80;99.90
23251;DHT22;11794;49.730;10.088;2024-01-15T09:46:57;-0.80;99.90
23251;DHT22;11794;49.730;10.088;2024-01-15T09:49:23;-0.80;99.90
23251;DHT22;11794;49.730;10.088;2024-01-15T09:51:48;-0.80;99.90
23251;DHT22;11794;49.730;10.088;2024-01-15T09:54:15;-0.80;99.90
23251;DHT22;11794;49.730;10.088;2024-01-15T09:56:46;-0.70;99.90
23251;DHT22;11794;49.730;10.088;2024-01-15T09:59:15;-0.70;99.90
23251;DHT22;11794;49.730;10.088;2024-01-15T10:01:42;-0.70;99.90
23251;DHT22;11794;49.730;10.088;2024-01-15T10:04:08;-0.70;99.90
23251;DHT22;11794;49.730;10.088;2024-01-15T10:06:34;-0.70;99.90
23251;DHT22;11794;49.730;10.088;2024-01-15T10:09:00;-0.70;99.90
23251;DHT22;11794;49.730;10.088;2024-01-15T10:11:26;-0.70;99.90
23251;DHT22;11794;49.730;10.088;2024-01-15T10:13:52;-0.70;99.90
23251;DHT22;11794;49.730;10.088;2024-01-15T10:16:21;-0.70;99.90
23251;DHT22;11794;49.730;10.088;2024-01-15T10:18:47;-0.80;99.90
23251;DHT22;11794;49.730;10.088;2024-01-15T10:21:13;-0.80;99.90
23251;DHT22;11794;49.730;10.088;2024-01-15T10:23:39;-0.80;99.90
23251;DHT22;11794;49.730;10.088;2024-01-15T10:26:05;-0.80;99.90
23251;DHT22;11794;49.730;10.088;2024-01-15T10:28:30;-0.80;99.90
23251;DHT22;11794;49.730;10.088;2024-01-15T10:30:58;-0.70;99.90
23251;DHT22;11794;49.730;10.088;2024-01-15T10:33:27;-0.60;99.90
23251;DHT22;11794;49.730;10.088;2024-01-15T10:35:57;-0.50;99.90
23251;DHT22;11794;49.730;10.088;2024-01-15T10:38:24;-0.30;99.90
23251;DHT22;11794;49.730;10.088;2024-01-15T10:40:54;-0.30;99.90
23251;DHT22;11794;49.730;10.088;2024-01-15T10:43:20;-0.30;99.90
23251;DHT22;11794;49.730;10.088;2024-01-15T10:45:46;-0.30;99.90
23251;DHT22;11794;49.730;10.088;2024-01-15T10:48:13;-0.30;99.90
23251;DHT22;11794;49.730;10.088;2024-01-15T10:50:39;-0.30;99.90
23251;DHT22;11794;49.730;10.088;2024-01-15T10:53:05;-0.30;99.90
23251;DHT22;11794;49.730;10.088;2024-01-15T10:55:31;-0.40;99.90
23251;DHT22;11794;49.730;10.088;2024-01-15T10:57:59;-0.40;99.90
23251;DHT22;11794;49.730;10.088;2024-01-15T11:00:25;-0.40;99.90
23251;DHT22;11794;49.730;10.088;2024-01-15T11:02:51;-0.30;99.90
23251;DHT22;11794;49.730;10.088;2024-01-15T11:05:21;-0.30;99.90
23251;DHT22;11794;49.730;10.088;2024-01-15T11:07:48;-0.20;99.90
23251;DHT22;11794;49.730;10.088;2024-01-15T11:13:04;0.60;99.90
23251;DHT22;11794;49.730;10.088;2024-01-15T11:15:30;0.80;99.90
23251;DHT22;11794;49.730;10.088;2024-01-15T11:18:00;1.60;99.90
23251;DHT22;11794;49.730;10.088;2024-01-15T11:20:26;2.60;99.90
23251;DHT22;11794;49.730;10.088;2024-01-15T11:22:51;3.20;99.90
23251;DHT22;11794;49.730;10.088;2024-01-15T11:25:20;3.50;99.90
23251;DHT22;11794;49.730;10.088;2024-01-15T11:27:51;2.70;99.90
23251;DHT22;11794;49.730;10.088;2024-01-15T11:30:17;1.40;99.90
23251;DHT22;11794;49.730;10.088;2024-01-15T11:32:43;0.60;99.90
23251;DHT22;11794;49.730;10.088;2024-01-15T11:35:09;0.10;99.90
23251;DHT22;11794;49.730;10.088;2024-01-15T11:42:46;-0.20;99.90
23251;DHT22;11794;49.730;10.088;2024-01-15T11:45:13;-0.30;99.90
23251;DHT22;11794;49.730;10.088;2024-01-15T11:47:58;-0.20;99.90
23251;DHT22;11794;49.730;10.088;2024-01-15T11:50:30;-0.20;99.90
23251;DHT22;11794;49.730;10.088;2024-01-15T11:53:00;-0.10;99.90
23251;DHT22;11794;49.730;10.088;2024-01-15T11:55:27;0.00;99.90
23251;DHT22;11794;49.730;10.088;2024-01-15T11:57:57;0.00;99.90
23251;DHT22;11794;49.730;10.088;2024-01-15T12:00:25;0.00;99.90
23251;DHT22;11794;49.730;10.088;2024-01-15T12:02:51;0.10;99.90
23251;DHT22;11794;49.730;10.088;2024-01-15T12:05:18;0.20;99.90
23251;DHT22;11794;49.730;10.088;2024-01-15T12:07:46;0.20;99.90
23251;DHT22;11794;49.730;10.088;2024-01-15T12:10:16;0.20;99.90
23251;DHT22;11794;49.730;10.088;2024-01-15T12:12:57;0.20;99.90
23251;DHT22;11794;49.730;10.088;2024-01-15T12:15:25;0.20;99.90
23251;DHT22;11794;49.730;10.088;2024-01-15T12:17:51;0.10;99.90
23251;DHT22;11794;49.730;10.088;2024-01-15T12:20:17;0.00;99.90
23251;DHT22;11794;49.730;10.088;2024-01-15T12:22:43;0.00;99.90
23251;DHT22;11794;49.730;10.088;2024-01-15T12:25:10;0.00;99.90
23251;DHT22;11794;49.730;10.088;2024-01-15T12:27:35;0.00;99.90
23251;DHT22;11794;49.730;10.088;2024-01-15T12:30:01;0.00;99.90
23251;DHT22;11794;49.730;10.088;2024-01-15T12:32:26;0.00;99.90
23251;DHT22;11794;49.730;10.088;2024-01-15T12:34:52;0.00;99.90
23251;DHT22;11794;49.730;10.088;2024-01-15T12:37:21;0.00;99.90
23251;DHT22;11794;49.730;10.088;2024-01-15T12:39:47;0.00;99.90
23251;DHT22;11794;49.730;10.088;2024-01-15T12:42:16;0.00;99.90
23251;DHT22;11794;49.730;10.088;2024-01-15T12:44:42;-0.10;99.90
23251;DHT22;11794;49.730;10.088;2024-01-15T12:47:08;-0.10;99.90
23251;DHT22;11794;49.730;10.088;2024-01-15T12:49:36;-0.10;99.90
23251;DHT22;11794;49.730;10.088;2024-01-15T12:52:02;0.00;99.90
23251;DHT22;11794;49.730;10.088;2024-01-15T12:54:27;0.00;99.90
23251;DHT22;11794;49.730;10.088;2024-01-15T12:56:53;0.00;99.90
23251;DHT22;11794;49.730;10.088;2024-01-15T12:59:18;0.00;99.90
23251;DHT22;11794;49.730;10.088;2024-01-15T13:01:45;0.10;99.90
23251;DHT22;11794;49.730;10.088;2024-01-15T13:04:12;0.10;99.90
23251;DHT22;11794;49.730;10.088;2024-01-15T13:06:45;0.40;99.90
23251;DHT22;11794;49.730;10.088;2024-01-15T13:09:11;0.40;99.90
23251;DHT22;11794;49.730;10.088;2024-01-15T13:11:37;0.40;99.90
23251;DHT22;11794;49.730;10.088;2024-01-15T13:14:02;0.50;99.90
23251;DHT22;11794;49.730;10.088;2024-01-15T13:16:28;0.40;99.90
23251;DHT22;11794;49.730;10.088;2024-01-15T13:18:54;0.40;99.90
23251;DHT22;11794;49.730;10.088;2024-01-15T13:21:20;0.40;99.90
23251;DHT22;11794;49.730;10.088;2024-01-15T13:23:46;0.50;99.90
23251;DHT22;11794;49.730;10.088;2024-01-15T13:26:11;0.70;99.90
23251;DHT22;11794;49.730;10.088;2024-01-15T13:28:37;0.80;99.90
23251;DHT22;11794;49.730;10.088;2024-01-15T13:31:03;0.90;99.90
23251;DHT22;11794;49.730;10.088;2024-01-15T13:33:30;0.90;99.90
23251;DHT22;11794;49.730;10.088;2024-01-15T13:35:55;0.80;99.90
23251;DHT22;11794;49.730;10.088;2024-01-15T13:38:21;0.60;99.90
23251;DHT22;11794;49.730;10.088;2024-01-15T13:40:46;0.50;99.90
23251;DHT22;11794;49.730;10.088;2024-01-15T13:43:12;0.60;99.90
23251;DHT22;11794;49.730;10.088;2024-01-15T13:45:40;0.50;99.90
23251;DHT22;11794;49.730;10.088;2024-01-15T13:48:06;0.40;99.90
23251;DHT22;11794;49.730;10.088;2024-01-15T13:50:36;0.40;99.90
23251;DHT22;11794;49.730;10.088;2024-01-15T13:53:03;0.30;99.90
23251;DHT22;11794;49.730;10.088;2024-01-15T13:55:32;0.30;99.90
23251;DHT22;11794;49.730;10.088;2024-01-15T13:57:57;0.30;99.90
23251;DHT22;11794;49.730;10.088;2024-01-15T14:00:23;0.30;99.90
23251;DHT22;11794;49.730;10.088;2024-01-15T14:02:48;0.20;99.90
23251;DHT22;11794;49.730;10.088;2024-01-15T14:05:14;0.20;99.90
23251;DHT22;11794;49.730;10.088;2024-01-15T14:07:40;0.30;99.90
23251;DHT22;11794;49.730;10.088;2024-01-15T14:10:06;0.30;99.90
23251;DHT22;11794;49.730;10.088;2024-01-15T14:12:33;0.40;99.90
23251;DHT22;11794;49.730;10.088;2024-01-15T14:14:59;0.40;99.90
23251;DHT22;11794;49.730;10.088;2024-01-15T14:17:25;0.30;99.90
23251;DHT22;11794;49.730;10.088;2024-01-15T14:19:50;0.30;99.90
23251;DHT22;11794;49.730;10.088;2024-01-15T14:22:16;0.30;99.90
23251;DHT22;11794;49.730;10.088;2024-01-15T14:24:41;0.20;99.90
23251;DHT22;11794;49.730;10.088;2024-01-15T14:27:07;0.20;99.90
23251;DHT22;11794;49.730;10.088;2024-01-15T14:29:33;0.10;99.90
23251;DHT22;11794;49.730;10.088;2024-01-15T14:31:58;0.10;99.90
23251;DHT22;11794;49.730;10.088;2024-01-15T14:34:25;0.10;99.90
23251;DHT22;11794;49.730;10.088;2024-01-15T14:36:51;0.10;99.90
23251;DHT22;11794;49.730;10.088;2024-01-15T14:39:21;0.00;99.90
23251;DHT22;11794;49.730;10.088;2024-01-15T14:41:47;0.00;99.90
23251;DHT22;11794;49.730;10.088;2024-01-15T14:44:13;0.00;99.90
23251;DHT22;11794;49.730;10.088;2024-01-15T14:46:39;0.00;99.90
23251;DHT22;11794;49.730;10.088;2024-01-15T14:49:04;0.00;99.90
23251;DHT22;11794;49.730;10.088;2024-01-15T14:51:30;0.00;99.90
23251;DHT22;11794;49.730;10.088;2024-01-15T14:53:55;0.00;99.90
23251;DHT22;11794;49.730;10.088;2024-01-15T14:56:21;0.00;99.90
23251;DHT22;11794;49.730;10.088;2024-01-15T14:58:47;-0.10;99.90
23251;DHT22;11794;49.730;10.088;2024-01-15T15:01:12;0.00;99.90
23251;DHT22;11794;49.730;10.088;2024-01-15T15:03:38;0.00;99.90
23251;DHT22;11794;49.730;10.088;2024-01-15T15:06:04;0.00;99.90
23251;DHT22;11794;49.730;10.088;2024-01-15T15:08:29;0.10;99.90
23251;DHT22;11794;49.730;10.088;2024-01-15T15:10:55;0.20;99.90
23251;DHT22;11794;49.730;10.088;2024-01-15T15:13:22;0.10;99.90
23251;DHT22;11794;49.730;10.088;2024-01-15T15:15:48;0.20;99.90
23251;DHT22;11794;49.730;10.088;2024-01-15T15:18:14;0.20;99.90
23251;DHT22;11794;49.730;10.088;2024-01-15T15:20:39;0.20;99.90